Admire, KS (66830)

7:02 PM CDT on July 29, 2014 (GMT -0500)
Timmerman School Area (KKSEMPOR4) Elev 1214 ft | 38.43 °N, 96.22 °W | Change Station

Current weather conditions updated 3 minutes ago

Mostly Cloudy
Mostly Cloudy
76.8 °F
Feels Like 79 °F
N
0.2
Wind Variable Wind from ESE
Gusts 2.5 mph

Tomorrow is forecast to be Warmer than today.

Today
High -- | Low -- °F
--% Chance of Precip.
Yesterday
High -- | Low -- °F
Precip. -- in
6:23 AM 8:37 PM
Waxing Crescent, 8% visible
Pressure 30.08 in
Visibility 10.0 miles
Clouds Scattered Clouds 8500 ft
Mostly Cloudy 12000 ft
Heat Index 79 °F
Dew Point 62 °F
Humidity 60%
Rainfall 0.00 in
Snow Depth Not available.
UV 1 out of 12
Pollen 6.40 out of 12
Air Quality Not available.
Flu Activity Not available.
METAR KEMP 292353Z AUTO 14006KT 10SM SCT085 BKN120 24/13 A3009 RMK AO2 SLP185 60000 T02440133 10256 20217 56022

More Conditions Fewer Conditions

Pressure 30.08 in
Visibility 10.0 miles
Clouds Scattered Clouds 8500 ft
Mostly Cloudy 12000 ft
Heat Index 79 °F
Dew Point 62 °F
Humidity 60%
Rainfall 0.00 in
Snow Depth Not available.
UV 1 out of 12
Pollen 6.40 out of 12
Air Quality Not available.
Flu Activity Not available.
METAR KEMP 292353Z AUTO 14006KT 10SM SCT085 BKN120 24/13 A3009 RMK AO2 SLP185 60000 T02440133 10256 20217 56022

More Conditions Fewer Conditions

10-Day Weather Forecast

Almanac

Astronomy

Jul. 29, 2014 Rise Set
Actual Time 6:23 AM CDT 8:37 PM CDT
Civil Twilight 5:53 AM CDT 9:07 PM CDT
Nautical Twilight 5:16 AM CDT 9:44 PM CDT
Astronomical Twilight 4:36 AM CDT 10:23 PM CDT
Moon 8:58 AM CDT (7/29) 9:53 PM CDT (7/29)
Length of Visible Light 15h 13m
Length of Day
14h 14m
Tomorrow will be 1m 49s shorter.
Waxing Crescent, 8% of the Moon is Illuminated
Today
Waxing Crescent
Aug 3
First Quarter
Aug 10
Full
Aug 17
Last Quarter
Aug 25
New

Today's Extremes

State Highs State Lows

Community

WunderPhotos

Upload Photos

1,738,917 photos uploaded!

Nearby

Snow Depth

Station Depth Elevation
No new snow has been reported.

Earthquake Activity

City Distance Mag. Time & Date
No recent earthquake activity has been reported nearby.
Minimum magnitude displayed is 2.5.

Coastal Water Temperatures

Place Temperature
No Stations Reporting

Nearby Weather Stations

Station Location Temp. Heat Index Dew Point Humidity Wind Precip. Elev Updated Type
Timmerman School Area, Emporia, KS 76.8 °F 79 °F 62 °F 60% ESE  at  0.2 mph 0.00 in / hr 1214 ft 6:59 PM CDT Rapid Fire
East Emporia Kansas, Emporia, KS 77.7 °F 79 °F 62 °F 59% ENE  at  3.7 mph - / hr 1106 ft 7:00 PM CDT Normal
Fly over Country, Burlingame, KS 80.5 °F 81 °F 59 °F 48% NNE  at  4.9 mph 0.00 in / hr 1063 ft 7:02 PM CDT Rapid Fire
T-K Weather Station West Hartford, Kansa, Hartford, KS 75.9 °F 78 °F 61 °F 60% SE  at  5.3 mph - / hr 1129 ft 6:57 PM CDT Normal

Show More Stations Show Fewer Stations